createdAt,value
2018-12-30T00:00:55.250Z,12.20
2018-12-30T00:01:55.237Z,9.20
2018-12-30T00:02:55.204Z,13.20
2018-12-30T00:03:55.231Z,11.50
2018-12-30T00:04:55.182Z,12.10
2018-12-30T00:05:55.172Z,13.30
2018-12-30T00:06:55.166Z,13.80
2018-12-30T00:07:55.159Z,14.60
2018-12-30T00:08:55.140Z,17.70
2018-12-30T00:09:55.150Z,12.50
2018-12-30T00:10:55.115Z,11.00
2018-12-30T00:11:55.104Z,16.50
2018-12-30T00:12:55.097Z,14.60
2018-12-30T00:13:55.090Z,11.60
2018-12-30T00:14:55.092Z,12.00
2018-12-30T00:15:55.060Z,12.50
2018-12-30T00:16:55.048Z,17.20
2018-12-30T00:17:55.040Z,9.80
2018-12-30T00:18:55.026Z,11.80
2018-12-30T00:19:55.051Z,10.30
2018-12-30T00:20:55.011Z,15.30
2018-12-30T00:21:54.993Z,14.20
2018-12-30T00:22:54.982Z,11.50
2018-12-30T00:23:54.970Z,13.40
2018-12-30T00:24:55.000Z,14.00
2018-12-30T00:25:54.975Z,13.00
2018-12-30T00:26:54.935Z,14.10
2018-12-30T00:27:54.931Z,15.20
2018-12-30T00:28:54.914Z,11.20
2018-12-30T00:29:54.916Z,19.20
2018-12-30T00:30:54.919Z,11.40
2018-12-30T00:31:54.910Z,16.10
2018-12-30T00:32:54.872Z,14.90
2018-12-30T00:33:54.862Z,14.30
2018-12-30T00:34:54.850Z,14.00
2018-12-30T00:35:54.862Z,11.00
2018-12-30T00:36:54.827Z,14.60
2018-12-30T00:37:54.826Z,16.40
2018-12-30T00:38:54.803Z,15.50
2018-12-30T00:39:54.795Z,12.20
2018-12-30T00:40:54.806Z,11.30
2018-12-30T00:41:54.770Z,11.20
2018-12-30T00:42:54.763Z,9.90
2018-12-30T00:43:54.765Z,11.70
2018-12-30T00:44:54.743Z,15.60
2018-12-30T00:45:54.749Z,15.80
2018-12-30T00:46:54.717Z,16.60
2018-12-30T00:47:54.708Z,15.60
2018-12-30T00:48:54.693Z,15.80
2018-12-30T00:49:54.690Z,10.30
2018-12-30T00:50:54.695Z,19.40
2018-12-30T00:51:54.662Z,12.80
2018-12-30T00:52:54.727Z,13.30
2018-12-30T00:53:54.639Z,15.60
2018-12-30T00:54:54.628Z,15.60
2018-12-30T00:55:54.662Z,17.10
2018-12-30T00:56:54.605Z,14.30
2018-12-30T00:57:54.601Z,14.40
2018-12-30T00:58:54.585Z,18.10
2018-12-30T00:59:54.574Z,15.30
2018-12-30T01:00:54.584Z,16.50
2018-12-30T01:01:54.579Z,12.60
2018-12-30T01:02:54.542Z,16.20
2018-12-30T01:03:54.529Z,15.30
2018-12-30T01:04:54.517Z,12.00
2018-12-30T01:05:54.531Z,11.50
2018-12-30T01:06:54.506Z,13.20
2018-12-30T01:07:54.503Z,12.70
2018-12-30T01:08:54.479Z,16.20
2018-12-30T01:09:54.467Z,15.00
2018-12-30T01:10:54.481Z,16.80
2018-12-30T01:11:54.441Z,12.60
2018-12-30T01:12:54.431Z,12.80
2018-12-30T01:13:54.419Z,13.80
2018-12-30T01:14:54.420Z,15.70
2018-12-30T01:15:54.396Z,11.50
2018-12-30T01:16:54.411Z,12.30
2018-12-30T01:17:54.374Z,16.50
2018-12-30T01:18:54.368Z,14.20
2018-12-30T01:19:54.353Z,13.30
2018-12-30T01:20:54.368Z,14.30
2018-12-30T01:21:54.353Z,13.10
2018-12-30T01:22:54.321Z,11.00
2018-12-30T01:23:54.312Z,16.00
2018-12-30T01:24:54.298Z,15.00
2018-12-30T01:25:54.370Z,17.80
2018-12-30T01:26:54.315Z,14.80
2018-12-30T01:27:54.270Z,13.20
2018-12-30T01:28:54.258Z,18.10
2018-12-30T01:29:54.244Z,13.20
2018-12-30T01:30:54.263Z,14.70
2018-12-30T01:31:54.247Z,15.90
2018-12-30T01:32:54.214Z,18.20
2018-12-30T01:33:54.221Z,11.70
2018-12-30T01:34:54.191Z,14.90
2018-12-30T01:35:54.186Z,18.50
2018-12-30T01:36:54.215Z,14.60
2018-12-30T01:37:54.156Z,16.40
2018-12-30T01:38:54.151Z,14.20
2018-12-30T01:39:54.147Z,17.10
2018-12-30T01:40:54.122Z,16.10
2018-12-30T01:41:54.132Z,14.10
2018-12-30T01:42:54.104Z,14.90
2018-12-30T01:43:54.098Z,19.80
2018-12-30T01:44:54.077Z,16.50
2018-12-30T01:45:54.074Z,15.60
2018-12-30T01:46:54.088Z,18.90
2018-12-30T01:47:54.044Z,13.70
2018-12-30T01:48:54.037Z,14.90
2018-12-30T01:49:54.023Z,18.60
2018-12-30T01:50:54.011Z,13.80
2018-12-30T01:51:54.040Z,17.00
2018-12-30T01:52:53.991Z,14.90
2018-12-30T01:53:53.978Z,17.10
2018-12-30T01:54:53.986Z,18.60
2018-12-30T01:55:53.956Z,12.90
2018-12-30T01:56:53.967Z,17.90
2018-12-30T01:57:53.937Z,14.90
2018-12-30T01:58:53.923Z,17.70
2018-12-30T01:59:53.912Z,19.20
2018-12-30T02:00:53.913Z,18.00
2018-12-30T02:01:53.930Z,21.30
2018-12-30T02:02:53.878Z,19.90
2018-12-30T02:03:53.869Z,16.20
2018-12-30T02:04:53.859Z,25.10
2018-12-30T02:05:53.846Z,19.80
2018-12-30T02:06:53.844Z,17.70
2018-12-30T02:07:53.845Z,18.00
2018-12-30T02:08:53.815Z,16.70
2018-12-30T02:09:53.802Z,19.00
2018-12-30T02:10:53.796Z,21.60
2018-12-30T02:11:53.781Z,20.80
2018-12-30T02:12:53.825Z,21.40
2018-12-30T02:13:53.758Z,20.00
2018-12-30T02:14:53.746Z,20.00
2018-12-30T02:15:53.738Z,16.70
2018-12-30T02:16:53.736Z,19.40
2018-12-30T02:17:53.738Z,21.10
2018-12-30T02:18:53.717Z,21.40
2018-12-30T02:19:53.692Z,22.10
2018-12-30T02:20:53.683Z,17.10
2018-12-30T02:21:53.679Z,23.60
2018-12-30T02:22:53.681Z,19.90
2018-12-30T02:23:53.658Z,19.00
2018-12-30T02:24:53.679Z,19.00
2018-12-30T02:25:53.638Z,17.30
2018-12-30T02:26:53.614Z,26.00
2018-12-30T02:27:53.628Z,15.50
2018-12-30T02:28:53.591Z,14.40
2018-12-30T02:29:53.591Z,16.40
2018-12-30T02:30:53.585Z,18.90
2018-12-30T02:31:53.562Z,14.80
2018-12-30T02:32:53.572Z,21.30
2018-12-30T02:33:53.538Z,16.50
2018-12-30T02:34:53.527Z,17.70
2018-12-30T02:35:53.518Z,19.10
2018-12-30T02:36:53.527Z,18.50
2018-12-30T02:37:53.524Z,19.80
2018-12-30T02:38:53.494Z,16.90
2018-12-30T02:39:53.475Z,18.80
2018-12-30T02:40:53.461Z,18.80
2018-12-30T02:41:53.450Z,17.50
2018-12-30T02:42:53.476Z,18.90
2018-12-30T02:43:53.427Z,15.60
2018-12-30T02:44:53.521Z,16.30
2018-12-30T02:45:53.405Z,12.60
2018-12-30T02:46:53.395Z,12.90
2018-12-30T02:47:53.420Z,14.90
2018-12-30T02:48:53.394Z,15.90
2018-12-30T02:49:53.362Z,13.30
2018-12-30T02:50:53.351Z,14.90
2018-12-30T02:51:53.345Z,15.80
2018-12-30T02:52:53.356Z,16.90
2018-12-30T02:53:53.322Z,13.80
2018-12-30T02:54:53.346Z,14.40
2018-12-30T02:55:53.300Z,16.30
2018-12-30T02:56:53.284Z,16.40
2018-12-30T02:57:53.301Z,14.00
2018-12-30T02:58:53.268Z,15.60
2018-12-30T02:59:53.263Z,18.80
2018-12-30T03:00:53.254Z,16.30
2018-12-30T03:01:53.230Z,17.70
2018-12-30T03:02:53.265Z,18.10
2018-12-30T03:03:53.207Z,16.00
2018-12-30T03:04:53.196Z,17.10
2018-12-30T03:05:53.186Z,13.70
2018-12-30T03:06:53.190Z,14.20
2018-12-30T03:07:53.164Z,18.60
2018-12-30T03:08:53.178Z,18.70
2018-12-30T03:09:53.143Z,19.10
2018-12-30T03:10:53.134Z,19.20
2018-12-30T03:11:53.120Z,19.00
2018-12-30T03:12:53.133Z,17.10
2018-12-30T03:13:53.127Z,18.40
2018-12-30T03:14:53.109Z,21.60
2018-12-30T03:15:53.074Z,17.50
2018-12-30T03:16:53.067Z,20.00
2018-12-30T03:17:53.056Z,22.20
2018-12-30T03:18:53.112Z,20.60
2018-12-30T03:19:53.032Z,18.10
2018-12-30T03:20:53.019Z,20.10
2018-12-30T03:21:59.158Z,13.50
2018-12-30T03:22:53.995Z,17.00
2018-12-30T03:23:53.011Z,18.90
2018-12-30T03:24:52.999Z,18.30
2018-12-30T03:25:52.967Z,19.70
2018-12-30T03:26:52.955Z,17.70
2018-12-30T03:27:52.944Z,22.10
2018-12-30T03:28:52.967Z,19.90
2018-12-30T03:29:52.921Z,19.90
2018-12-30T03:30:52.935Z,20.80
2018-12-30T03:31:52.899Z,20.50
2018-12-30T03:32:52.888Z,24.20
2018-12-30T03:33:52.900Z,20.50
2018-12-30T03:34:52.868Z,21.50
2018-12-30T03:35:52.852Z,20.60
2018-12-30T03:36:52.875Z,19.50
2018-12-30T03:37:52.833Z,19.30
2018-12-30T03:38:52.861Z,18.50
2018-12-30T03:39:52.809Z,21.50
2018-12-30T03:40:52.827Z,21.30
2018-12-30T03:41:52.787Z,20.80
2018-12-30T03:42:52.794Z,22.30
2018-12-30T03:43:52.790Z,21.80
2018-12-30T03:44:52.755Z,21.60
2018-12-30T03:45:52.745Z,17.20
2018-12-30T03:46:52.740Z,20.10
2018-12-30T03:47:52.722Z,20.60
2018-12-30T03:48:52.737Z,17.60
2018-12-30T03:49:52.700Z,21.70
2018-12-30T03:50:52.688Z,18.20
2018-12-30T03:51:52.684Z,22.70
2018-12-30T03:52:52.665Z,18.80
2018-12-30T03:53:52.688Z,19.60
2018-12-30T03:54:52.649Z,19.30
2018-12-30T03:55:52.632Z,19.50
2018-12-30T03:56:52.621Z,20.40
2018-12-30T03:57:52.609Z,15.90
2018-12-30T03:58:52.600Z,18.00
2018-12-30T03:59:52.609Z,17.20
2018-12-30T04:00:52.599Z,21.10
2018-12-30T04:01:52.565Z,20.10
2018-12-30T04:02:52.556Z,21.50
2018-12-30T04:03:52.544Z,20.40
2018-12-30T04:04:52.556Z,15.80
2018-12-30T04:05:52.522Z,17.00
2018-12-30T04:06:52.522Z,19.50
2018-12-30T04:07:52.502Z,14.60
2018-12-30T04:08:52.499Z,17.70
2018-12-30T04:09:52.501Z,17.50
2018-12-30T04:10:52.470Z,22.60
2018-12-30T04:11:52.455Z,17.10
2018-12-30T04:12:52.456Z,22.40
2018-12-30T04:13:52.434Z,16.80
2018-12-30T04:14:52.446Z,20.20
2018-12-30T04:15:52.411Z,17.60
2018-12-30T04:16:52.400Z,18.70
2018-12-30T04:17:52.390Z,16.70
2018-12-30T04:18:52.394Z,16.20
2018-12-30T04:19:52.389Z,20.40
2018-12-30T04:20:52.355Z,17.80
2018-12-30T04:21:52.344Z,22.70
2018-12-30T04:22:52.334Z,19.90
2018-12-30T04:23:52.325Z,20.30
2018-12-30T04:24:52.350Z,19.30
2018-12-30T04:25:52.301Z,19.80
2018-12-30T04:26:52.292Z,17.70
2018-12-30T04:27:52.278Z,18.50
2018-12-30T04:28:52.271Z,17.90
2018-12-30T04:29:52.279Z,21.20
2018-12-30T04:30:52.265Z,18.90
2018-12-30T04:31:52.237Z,17.70
2018-12-30T04:32:52.237Z,21.90
2018-12-30T04:33:52.212Z,20.20
2018-12-30T04:34:52.233Z,17.00
2018-12-30T04:35:52.189Z,18.70
2018-12-30T04:36:52.198Z,18.30
2018-12-30T04:37:52.170Z,15.60
2018-12-30T04:38:52.159Z,17.50
2018-12-30T04:39:52.172Z,19.00
2018-12-30T04:40:52.136Z,18.80
2018-12-30T04:41:52.123Z,18.60
2018-12-30T04:42:52.125Z,20.70
2018-12-30T04:43:52.146Z,17.60
2018-12-30T04:44:52.112Z,17.80
2018-12-30T04:45:52.086Z,14.90
2018-12-30T04:46:52.067Z,15.20
2018-12-30T04:47:52.056Z,20.00
2018-12-30T04:48:52.064Z,22.90
2018-12-30T04:49:52.076Z,18.50
2018-12-30T04:50:52.022Z,18.70
2018-12-30T04:51:52.017Z,18.20
2018-12-30T04:52:52.001Z,17.60
2018-12-30T04:53:51.990Z,16.10
2018-12-30T04:54:51.997Z,21.10
2018-12-30T04:55:51.990Z,15.60
2018-12-30T04:56:51.969Z,20.30
2018-12-30T04:57:51.946Z,20.50
2018-12-30T04:58:51.933Z,15.90
2018-12-30T04:59:51.925Z,17.80
2018-12-30T05:00:51.948Z,16.90
2018-12-30T05:01:51.948Z,18.10
2018-12-30T05:02:51.891Z,13.30
2018-12-30T05:03:51.884Z,16.40
2018-12-30T05:04:51.869Z,15.70
2018-12-30T05:05:51.881Z,16.00
2018-12-30T05:06:51.847Z,16.40
2018-12-30T05:07:51.858Z,18.40
2018-12-30T05:08:51.842Z,16.40
2018-12-30T05:09:51.817Z,15.00
2018-12-30T05:10:51.828Z,15.80
2018-12-30T05:11:51.791Z,16.20
2018-12-30T05:12:51.781Z,17.40
2018-12-30T05:13:51.787Z,15.20
2018-12-30T05:14:51.760Z,16.00
2018-12-30T05:15:51.779Z,15.20
2018-12-30T05:16:51.744Z,17.80
2018-12-30T05:17:51.725Z,21.60
2018-12-30T05:18:51.714Z,15.30
2018-12-30T05:19:51.724Z,16.80
2018-12-30T05:20:51.716Z,16.70
2018-12-30T05:21:51.685Z,21.40
2018-12-30T05:22:51.674Z,15.00
2018-12-30T05:23:51.662Z,20.40
2018-12-30T05:24:51.694Z,15.00
2018-12-30T05:25:51.660Z,14.80
2018-12-30T05:26:51.642Z,16.30
2018-12-30T05:27:51.617Z,17.80
2018-12-30T05:28:51.605Z,20.30
2018-12-30T05:29:51.609Z,18.50
2018-12-30T05:30:51.610Z,16.10
2018-12-30T05:31:51.576Z,18.50
2018-12-30T05:32:51.571Z,17.30
2018-12-30T05:33:51.554Z,15.80
2018-12-30T05:34:51.542Z,17.50
2018-12-30T05:35:51.572Z,18.50
2018-12-30T05:36:51.527Z,17.80
2018-12-30T05:37:51.505Z,17.90
2018-12-30T05:38:51.504Z,19.70
2018-12-30T05:39:51.485Z,17.20
2018-12-30T05:40:51.498Z,19.50
2018-12-30T05:41:51.463Z,14.80
2018-12-30T05:42:51.465Z,21.70
2018-12-30T05:43:51.471Z,19.70
2018-12-30T05:44:51.428Z,20.60
2018-12-30T05:45:51.454Z,19.00
2018-12-30T05:46:51.458Z,22.20
2018-12-30T05:47:51.402Z,22.40
2018-12-30T05:48:51.394Z,20.00
2018-12-30T05:49:51.379Z,17.80
2018-12-30T05:50:51.363Z,18.50
2018-12-30T05:51:51.431Z,19.60
2018-12-30T05:52:51.351Z,19.40
2018-12-30T05:53:51.328Z,18.60
2018-12-30T05:54:51.319Z,15.90
2018-12-30T05:55:51.304Z,18.70
2018-12-30T05:56:51.330Z,21.20
2018-12-30T05:57:51.299Z,20.40
2018-12-30T05:58:51.271Z,20.60
2018-12-30T05:59:51.262Z,20.40
2018-12-30T06:00:51.253Z,22.20
2018-12-30T06:01:51.262Z,20.30
2018-12-30T06:02:51.226Z,18.80
2018-12-30T06:03:51.300Z,21.20
2018-12-30T06:04:51.203Z,18.70
2018-12-30T06:05:51.196Z,20.40
2018-12-30T06:06:51.208Z,18.70
2018-12-30T06:07:51.172Z,23.60
2018-12-30T06:08:51.158Z,24.90
2018-12-30T06:09:51.158Z,19.40
2018-12-30T06:10:51.136Z,21.10
2018-12-30T06:11:51.152Z,22.90
2018-12-30T06:12:51.155Z,21.10
2018-12-30T06:13:51.121Z,22.50
2018-12-30T06:14:51.092Z,23.70
2018-12-30T06:15:51.109Z,21.10
2018-12-30T06:16:51.098Z,22.10
2018-12-30T06:17:51.061Z,22.60
2018-12-30T06:18:51.048Z,19.90
2018-12-30T06:19:51.036Z,21.80
2018-12-30T06:20:51.027Z,21.70
2018-12-30T06:21:51.053Z,19.20
2018-12-30T06:22:51.005Z,23.20
2018-12-30T06:23:50.995Z,23.60
2018-12-30T06:24:50.993Z,21.60
2018-12-30T06:25:50.968Z,23.00
2018-12-30T06:26:50.986Z,24.70
2018-12-30T06:27:50.947Z,21.90
2018-12-30T06:28:50.951Z,24.10
2018-12-30T06:29:50.939Z,20.90
2018-12-30T06:30:50.924Z,22.70
2018-12-30T06:31:50.924Z,21.70
2018-12-30T06:32:50.891Z,22.00
2018-12-30T06:33:50.879Z,21.50
2018-12-30T06:34:50.884Z,27.00
2018-12-30T06:35:50.860Z,23.20
2018-12-30T06:36:50.882Z,22.50
2018-12-30T06:37:50.835Z,22.80
2018-12-30T06:38:50.824Z,22.20
2018-12-30T06:39:50.819Z,23.20
2018-12-30T06:40:50.822Z,26.00
2018-12-30T06:41:50.792Z,20.20
2018-12-30T06:42:50.802Z,21.60
2018-12-30T06:43:50.767Z,22.50
2018-12-30T06:44:50.756Z,20.60
2018-12-30T06:45:50.750Z,22.80
2018-12-30T06:46:50.746Z,26.00
2018-12-30T06:47:50.748Z,27.40
2018-12-30T06:48:50.719Z,23.80
2018-12-30T06:49:50.700Z,21.30
2018-12-30T06:50:50.691Z,22.20
2018-12-30T06:51:50.681Z,23.10
2018-12-30T06:52:57.346Z,28.70
2018-12-30T06:53:51.661Z,24.40
2018-12-30T06:54:50.648Z,21.30
2018-12-30T06:55:50.639Z,24.60
2018-12-30T06:56:50.625Z,27.20
2018-12-30T06:57:50.636Z,24.60
2018-12-30T06:58:50.619Z,23.50
2018-12-30T06:59:50.590Z,23.20
2018-12-30T07:00:50.582Z,22.70
2018-12-30T07:01:50.569Z,20.00
2018-12-30T07:02:50.585Z,26.30
2018-12-30T07:03:50.546Z,27.90
2018-12-30T07:04:50.560Z,25.90
2018-12-30T07:05:50.534Z,28.50
2018-12-30T07:06:50.515Z,23.20
2018-12-30T07:07:50.527Z,29.60
2018-12-30T07:08:50.493Z,24.00
2018-12-30T07:09:50.482Z,25.60
2018-12-30T07:10:50.488Z,22.90
2018-12-30T07:11:50.457Z,23.50
2018-12-30T07:12:50.469Z,21.70
2018-12-30T07:13:50.447Z,27.60
2018-12-30T07:14:50.425Z,25.80
2018-12-30T07:15:50.413Z,24.70
2018-12-30T07:16:50.402Z,27.10
2018-12-30T07:17:50.445Z,28.30
2018-12-30T07:18:50.386Z,26.70
2018-12-30T07:19:50.370Z,25.50
2018-12-30T07:20:50.359Z,30.70
2018-12-30T07:21:50.347Z,27.30
2018-12-30T07:22:50.360Z,28.60
2018-12-30T07:23:50.336Z,28.40
2018-12-30T07:24:50.320Z,28.60
2018-12-30T07:25:50.304Z,31.00
2018-12-30T07:26:50.294Z,30.70
2018-12-30T07:27:50.304Z,29.10
2018-12-30T07:28:50.273Z,30.10
2018-12-30T07:29:50.267Z,28.20
2018-12-30T07:30:50.254Z,26.60
2018-12-30T07:31:50.238Z,20.40
2018-12-30T07:32:50.260Z,29.00
2018-12-30T07:33:50.215Z,23.50
2018-12-30T07:34:50.204Z,27.80
2018-12-30T07:35:50.232Z,27.90
2018-12-30T07:36:50.192Z,29.40
2018-12-30T07:37:50.170Z,30.90
2018-12-30T07:38:50.192Z,28.60
2018-12-30T07:39:50.147Z,26.00
2018-12-30T07:40:50.138Z,27.30
2018-12-30T07:41:50.135Z,26.10
2018-12-30T07:42:50.118Z,24.80
2018-12-30T07:43:50.129Z,23.70
2018-12-30T07:44:50.095Z,26.90
2018-12-30T07:45:50.081Z,27.30
2018-12-30T07:46:50.070Z,23.80
2018-12-30T07:47:50.078Z,27.80
2018-12-30T07:48:50.071Z,28.50
2018-12-30T07:49:50.037Z,28.10
2018-12-30T07:50:50.027Z,30.00
2018-12-30T07:51:50.015Z,29.60
2018-12-30T07:52:50.006Z,28.70
2018-12-30T07:53:50.031Z,28.10
2018-12-30T07:54:49.981Z,24.60
2018-12-30T07:55:49.971Z,27.10
2018-12-30T07:56:49.980Z,28.70
2018-12-30T07:57:49.949Z,26.30
2018-12-30T07:58:49.959Z,28.80
2018-12-30T07:59:49.945Z,27.60
2018-12-30T08:00:49.918Z,21.70
2018-12-30T08:01:49.906Z,24.50
2018-12-30T08:02:49.911Z,22.90
2018-12-30T08:03:49.908Z,25.80
2018-12-30T08:04:49.873Z,27.80
2018-12-30T08:05:49.882Z,26.60
2018-12-30T08:06:49.849Z,24.30
2018-12-30T08:07:49.841Z,25.90
2018-12-30T08:08:49.848Z,29.80
2018-12-30T08:09:49.818Z,25.00
2018-12-30T08:10:49.866Z,24.50
2018-12-30T08:11:49.820Z,28.10
2018-12-30T08:12:49.782Z,30.10
2018-12-30T08:13:49.793Z,30.50
2018-12-30T08:14:49.767Z,26.20
2018-12-30T08:15:49.752Z,28.20
2018-12-30T08:16:49.738Z,25.10
2018-12-30T08:17:49.737Z,29.90
2018-12-30T08:18:49.739Z,34.00
2018-12-30T08:19:49.707Z,27.80
2018-12-30T08:20:49.694Z,29.20
2018-12-30T08:21:49.690Z,25.60
2018-12-30T08:22:49.674Z,27.80
2018-12-30T08:23:49.701Z,27.50
2018-12-30T08:24:49.652Z,28.40
2018-12-30T08:25:49.642Z,29.90
2018-12-30T08:26:49.629Z,29.40
2018-12-30T08:27:49.618Z,32.60
2018-12-30T08:28:49.608Z,31.20
2018-12-30T08:29:49.649Z,32.40
2018-12-30T08:30:49.594Z,31.80
2018-12-30T08:31:49.573Z,30.60
2018-12-30T08:32:49.564Z,31.80
2018-12-30T08:33:49.551Z,30.80
2018-12-30T08:34:49.586Z,30.90
2018-12-30T08:35:49.530Z,30.60
2018-12-30T08:36:49.533Z,30.10
2018-12-30T08:37:49.506Z,32.80
2018-12-30T08:38:49.501Z,30.00
2018-12-30T08:39:49.513Z,33.20
2018-12-30T08:40:49.475Z,35.50
2018-12-30T08:41:49.468Z,26.90
2018-12-30T08:42:49.463Z,32.50
2018-12-30T08:43:49.441Z,30.40
2018-12-30T08:44:49.458Z,32.20
2018-12-30T08:45:49.442Z,32.80
2018-12-30T08:46:49.409Z,28.20
2018-12-30T08:47:49.400Z,29.60
2018-12-30T08:48:49.825Z,28.20
2018-12-30T08:49:49.434Z,31.70
2018-12-30T08:50:49.367Z,32.00
2018-12-30T08:51:49.352Z,31.00
2018-12-30T08:52:49.346Z,33.70
2018-12-30T08:53:49.342Z,31.60
2018-12-30T08:54:49.397Z,29.60
2018-12-30T08:55:49.310Z,33.10
2018-12-30T08:56:49.298Z,32.00
2018-12-30T08:57:49.286Z,35.20
2018-12-30T08:58:49.283Z,31.50
2018-12-30T08:59:49.300Z,30.50
2018-12-30T09:00:49.277Z,33.50
2018-12-30T09:01:49.243Z,33.40
2018-12-30T09:02:49.231Z,32.30
2018-12-30T09:03:49.225Z,27.90
2018-12-30T09:04:49.231Z,30.90
2018-12-30T09:05:49.218Z,31.20
2018-12-30T09:06:49.199Z,33.70
2018-12-30T09:07:49.176Z,34.20
2018-12-30T09:08:49.165Z,33.20
2018-12-30T09:09:49.176Z,30.20
2018-12-30T09:10:49.140Z,33.80
2018-12-30T09:11:49.130Z,34.30
2018-12-30T09:12:49.146Z,34.80
2018-12-30T09:13:49.133Z,32.80
2018-12-30T09:14:49.123Z,29.20
2018-12-30T09:15:49.091Z,31.30
2018-12-30T09:16:49.084Z,39.20
2018-12-30T09:17:49.067Z,27.80
2018-12-30T09:18:49.069Z,32.30
2018-12-30T09:19:49.335Z,32.50
2018-12-30T09:20:49.031Z,29.90
2018-12-30T09:21:49.022Z,32.90
2018-12-30T09:22:49.012Z,28.30
2018-12-30T09:23:49.003Z,33.80
2018-12-30T09:24:48.994Z,30.30
2018-12-30T09:25:48.999Z,31.10
2018-12-30T09:26:48.978Z,37.00
2018-12-30T09:27:48.954Z,35.10
2018-12-30T09:28:48.942Z,41.70
2018-12-30T09:29:48.932Z,36.20
2018-12-30T09:30:48.965Z,32.10
2018-12-30T09:31:48.954Z,35.20
2018-12-30T09:32:48.901Z,32.50
2018-12-30T09:33:48.886Z,33.90
2018-12-30T09:34:48.876Z,34.00
2018-12-30T09:35:48.888Z,30.40
2018-12-30T09:36:48.861Z,31.20
2018-12-30T09:37:48.842Z,36.80
2018-12-30T09:38:48.831Z,31.90
2018-12-30T09:39:48.826Z,29.60
2018-12-30T09:40:48.831Z,31.70
2018-12-30T09:41:48.803Z,28.50
2018-12-30T09:42:48.796Z,31.60
2018-12-30T09:43:48.816Z,29.20
2018-12-30T09:44:48.768Z,29.10
2018-12-30T09:45:48.778Z,26.10
2018-12-30T09:46:48.741Z,27.60
2018-12-30T09:47:48.735Z,28.70
2018-12-30T09:48:48.723Z,26.20
2018-12-30T09:49:48.744Z,26.60
2018-12-30T09:50:48.736Z,26.00
2018-12-30T09:51:48.687Z,23.00
2018-12-30T09:52:48.687Z,26.00
2018-12-30T09:53:48.672Z,27.80
2018-12-30T09:54:48.652Z,24.60
2018-12-30T09:55:48.703Z,22.50
2018-12-30T09:56:48.632Z,24.30
2018-12-30T09:57:48.630Z,23.70
2018-12-30T09:58:48.616Z,24.10
2018-12-30T09:59:48.600Z,25.10
2018-12-30T10:00:48.618Z,19.00
2018-12-30T10:01:48.625Z,25.00
2018-12-30T10:02:48.564Z,23.70
2018-12-30T10:03:48.556Z,21.80
2018-12-30T10:04:48.556Z,21.60
2018-12-30T10:05:48.560Z,21.90
2018-12-30T10:06:48.522Z,18.00
2018-12-30T10:07:48.511Z,23.80
2018-12-30T10:08:48.509Z,22.30
2018-12-30T10:09:48.485Z,21.60
2018-12-30T10:10:48.502Z,19.10
2018-12-30T10:11:48.466Z,18.10
2018-12-30T10:12:48.455Z,19.30
2018-12-30T10:13:48.442Z,19.60
2018-12-30T10:14:48.432Z,19.50
2018-12-30T10:15:48.491Z,20.00
2018-12-30T10:16:48.412Z,19.80
2018-12-30T10:17:48.403Z,15.30
2018-12-30T10:18:48.387Z,17.80
2018-12-30T10:19:48.378Z,18.70
2018-12-30T10:20:48.366Z,18.10
2018-12-30T10:21:48.392Z,19.30
2018-12-30T10:22:48.344Z,15.20
2018-12-30T10:23:52.969Z,18.50
2018-12-30T10:24:48.322Z,19.60
2018-12-30T10:25:48.314Z,20.40
2018-12-30T10:26:48.335Z,14.60
2018-12-30T10:27:48.316Z,14.90
2018-12-30T10:28:48.279Z,16.80
2018-12-30T10:29:48.267Z,16.60
2018-12-30T10:30:48.256Z,18.10
2018-12-30T10:31:48.272Z,14.20
2018-12-30T10:32:48.232Z,18.70
2018-12-30T10:33:48.234Z,18.20
2018-12-30T10:34:48.210Z,17.20
2018-12-30T10:35:48.202Z,19.40
2018-12-30T10:36:48.212Z,18.50
2018-12-30T10:37:48.178Z,17.90
2018-12-30T10:38:48.168Z,18.70
2018-12-30T10:39:48.167Z,18.40
2018-12-30T10:40:48.145Z,16.60
2018-12-30T10:41:48.157Z,15.00
2018-12-30T10:42:48.122Z,13.70
2018-12-30T10:43:48.113Z,15.40
2018-12-30T10:44:48.102Z,16.30
2018-12-30T10:45:48.103Z,15.70
2018-12-30T10:46:48.106Z,16.10
2018-12-30T10:47:48.069Z,14.90
2018-12-30T10:48:48.059Z,15.70
2018-12-30T10:49:48.047Z,16.30
2018-12-30T10:50:48.036Z,16.10
2018-12-30T10:51:48.068Z,15.70
2018-12-30T10:52:48.012Z,16.80
2018-12-30T10:53:48.011Z,15.70
2018-12-30T10:54:47.990Z,15.70
2018-12-30T10:55:47.989Z,16.00
2018-12-30T10:56:47.993Z,18.20
2018-12-30T10:57:47.960Z,15.30
2018-12-30T10:58:47.958Z,17.10
2018-12-30T10:59:47.937Z,14.30
2018-12-30T11:00:47.924Z,11.30
2018-12-30T11:01:47.937Z,10.10
2018-12-30T11:02:47.910Z,12.90
2018-12-30T11:03:47.892Z,18.50
2018-12-30T11:04:47.902Z,11.40
2018-12-30T11:05:47.870Z,16.70
2018-12-30T11:06:47.880Z,12.80
2018-12-30T11:07:47.849Z,14.00
2018-12-30T11:08:47.844Z,12.40
2018-12-30T11:09:47.829Z,11.70
2018-12-30T11:10:47.828Z,14.60
2018-12-30T11:11:48.796Z,10.80
2018-12-30T11:12:47.814Z,13.70
2018-12-30T11:13:47.780Z,12.50
2018-12-30T11:14:47.771Z,15.60
2018-12-30T11:15:47.763Z,13.70
2018-12-30T11:16:47.760Z,12.30
2018-12-30T11:17:47.761Z,10.80
2018-12-30T11:18:47.733Z,9.10
2018-12-30T11:19:47.724Z,10.60
2018-12-30T11:20:47.707Z,11.70
2018-12-30T11:21:47.705Z,11.00
2018-12-30T11:22:47.750Z,14.20
2018-12-30T11:23:47.672Z,14.20
2018-12-30T11:24:47.660Z,16.60
2018-12-30T11:25:47.649Z,12.20
2018-12-30T11:26:47.637Z,13.10
2018-12-30T11:27:47.650Z,10.10
2018-12-30T11:28:47.663Z,11.60
2018-12-30T11:29:47.608Z,11.50
2018-12-30T11:30:47.594Z,13.90
2018-12-30T11:31:47.582Z,10.50
2018-12-30T11:32:47.593Z,12.30
2018-12-30T11:33:47.569Z,12.90
2018-12-30T11:34:47.576Z,11.80
2018-12-30T11:35:47.538Z,14.60
2018-12-30T11:36:47.542Z,12.50
2018-12-30T11:37:47.554Z,11.60
2018-12-30T11:38:47.516Z,14.80
2018-12-30T11:39:47.493Z,10.60
2018-12-30T11:40:47.494Z,11.80
2018-12-30T11:41:47.471Z,11.00
2018-12-30T11:42:47.485Z,12.50
2018-12-30T11:43:47.449Z,8.70
2018-12-30T11:44:47.437Z,9.50
2018-12-30T11:45:47.428Z,13.60
2018-12-30T11:46:47.423Z,11.00
2018-12-30T11:47:47.430Z,14.40
2018-12-30T11:48:47.399Z,10.40
2018-12-30T11:49:47.387Z,15.40
2018-12-30T11:50:47.371Z,12.40
2018-12-30T11:51:47.362Z,14.40
2018-12-30T11:52:47.389Z,11.70
2018-12-30T11:53:47.342Z,14.00
2018-12-30T11:54:47.341Z,12.80
2018-12-30T11:55:47.318Z,13.10
2018-12-30T11:56:47.308Z,15.10
2018-12-30T11:57:47.321Z,16.80
2018-12-30T11:58:47.302Z,14.00
2018-12-30T11:59:47.272Z,15.10
2018-12-30T12:00:47.263Z,13.20
2018-12-30T12:01:47.252Z,13.50
2018-12-30T12:02:47.274Z,12.40
2018-12-30T12:03:47.229Z,14.10
2018-12-30T12:04:47.238Z,14.20
2018-12-30T12:05:47.207Z,11.40
2018-12-30T12:06:47.194Z,18.20
2018-12-30T12:07:47.184Z,15.00
2018-12-30T12:08:47.194Z,14.00
2018-12-30T12:09:47.159Z,13.50
2018-12-30T12:10:47.180Z,16.20
2018-12-30T12:11:47.140Z,17.40
2018-12-30T12:12:49.014Z,17.20
2018-12-30T12:13:47.141Z,14.20
2018-12-30T12:14:47.106Z,16.20
2018-12-30T12:15:47.097Z,16.70
2018-12-30T12:16:47.104Z,17.40
2018-12-30T12:17:47.072Z,15.30
2018-12-30T12:18:47.083Z,17.90
2018-12-30T12:19:47.049Z,15.50
2018-12-30T12:20:47.040Z,16.50
2018-12-30T12:21:47.026Z,14.10
2018-12-30T12:22:47.022Z,15.20
2018-12-30T12:23:47.040Z,14.80
2018-12-30T12:24:46.995Z,17.70
2018-12-30T12:25:46.983Z,14.20
2018-12-30T12:26:46.972Z,14.10
2018-12-30T12:27:46.967Z,16.50
2018-12-30T12:28:46.973Z,14.70
2018-12-30T12:29:46.946Z,17.90
2018-12-30T12:30:46.927Z,14.40
2018-12-30T12:31:46.915Z,20.10
2018-12-30T12:32:46.905Z,16.40
2018-12-30T12:33:46.915Z,17.20
2018-12-30T12:34:46.888Z,17.40
2018-12-30T12:35:46.907Z,14.10
2018-12-30T12:36:46.864Z,14.10
2018-12-30T12:37:46.849Z,17.10
2018-12-30T12:38:46.860Z,13.70
2018-12-30T12:39:46.825Z,13.70
2018-12-30T12:40:46.816Z,15.90
2018-12-30T12:41:46.815Z,17.00
2018-12-30T12:42:46.793Z,15.10
2018-12-30T12:43:46.817Z,14.60
2018-12-30T12:44:46.775Z,17.80
2018-12-30T12:45:46.761Z,13.10
2018-12-30T12:46:46.750Z,15.70
2018-12-30T12:47:46.750Z,16.10
2018-12-30T12:48:46.752Z,13.50
2018-12-30T12:49:46.716Z,13.20
2018-12-30T12:50:46.707Z,13.20
2018-12-30T12:51:46.692Z,11.90
2018-12-30T12:52:46.687Z,13.50